Hoffman, North Carolina
Current Conditions -  °F | °C
As of 5:36 AM on Monday 26 Jan 2015 (Local Time) from KHFF Reporting Station
Light Rain Light Rain  
Wind Chill: 37°   Ceiling: 7000
Heat Index: 37°   Visibility: 10mi
Dew Point: 37°   Wind: 3mph
Humidity: 100%   Direction: 40°NE
Pressure: 29.68"   Gusts: NA
Location:  35.03°N, 79.55°W
Report Text: KHFF 261036Z AUTO 04003KT 10SM -RA BKN070 03/03 A2968 RMK AO2
Loading
Personal Weather Stations






























Interactive Weather Map New forecast layout! Learn more

10-Day Weather Forecast

Advertisements
Track Severe Weather on mobile